createdAt,value
2018-12-21T00:03:25.390Z,25.37
2018-12-21T00:08:27.145Z,25.57
2018-12-21T00:13:29.010Z,21.53
2018-12-21T00:18:31.309Z,26.80
2018-12-21T00:23:34.212Z,23.03
2018-12-21T00:28:36.091Z,23.60
2018-12-21T00:33:43.904Z,23.77
2018-12-21T00:38:51.528Z,22.70
2018-12-21T00:49:28.265Z,23.10
2018-12-21T00:54:30.544Z,25.23
2018-12-21T00:59:32.216Z,19.60
2018-12-21T01:04:34.099Z,24.97
2018-12-21T01:09:36.769Z,22.10
2018-12-21T01:14:38.882Z,19.00
2018-12-21T01:19:40.553Z,11.37
2018-12-21T01:24:42.429Z,18.63
2018-12-21T01:29:44.513Z,16.20
2018-12-21T01:34:46.804Z,19.53
2018-12-21T01:39:49.486Z,15.30
2018-12-21T01:44:51.584Z,17.80
2018-12-21T01:49:53.874Z,14.47
2018-12-21T01:54:56.161Z,19.60
2018-12-21T01:59:58.445Z,18.80
2018-12-21T02:05:00.325Z,17.43
2018-12-21T02:10:02.201Z,22.43
2018-12-21T02:15:04.095Z,20.20
2018-12-21T02:20:06.163Z,34.17
2018-12-21T02:25:08.245Z,21.57
2018-12-21T02:30:09.921Z,27.30
2018-12-21T02:35:11.595Z,24.80
2018-12-21T02:40:13.680Z,24.77
2018-12-21T02:45:15.760Z,19.80
2018-12-21T02:50:17.842Z,27.67
2018-12-21T02:55:20.131Z,33.90
2018-12-21T03:00:22.010Z,31.50
2018-12-21T03:05:23.682Z,14.70
2018-12-21T03:10:25.766Z,27.97
2018-12-21T03:15:28.054Z,30.67
2018-12-21T03:20:29.935Z,22.00
2018-12-21T03:25:31.918Z,19.53
2018-12-21T03:30:34.099Z,30.37
2018-12-21T03:35:36.388Z,24.07
2018-12-21T03:40:38.677Z,36.27
2018-12-21T03:45:40.348Z,28.43
2018-12-21T03:50:42.022Z,26.73
2018-12-21T03:55:43.903Z,33.50
2018-12-21T04:00:45.541Z,26.87
2018-12-21T04:05:47.450Z,26.57
2018-12-21T04:10:49.129Z,27.33
2018-12-21T04:15:50.797Z,19.77
2018-12-21T04:20:53.273Z,23.77
2018-12-21T04:25:55.537Z,26.30
2018-12-21T04:31:02.014Z,25.20
2018-12-21T04:36:03.665Z,25.10
2018-12-21T04:41:05.943Z,26.77
2018-12-21T04:46:07.672Z,24.70
2018-12-21T04:51:10.145Z,23.77
2018-12-21T04:56:12.231Z,23.37
2018-12-21T05:01:14.338Z,19.30
2018-12-21T05:06:16.213Z,28.20
2018-12-21T05:11:18.502Z,21.43
2018-12-21T05:16:20.384Z,22.13
2018-12-21T05:21:22.268Z,23.90
2018-12-21T05:26:24.747Z,23.07
2018-12-21T05:31:28.406Z,19.37
2018-12-21T05:36:30.603Z,20.50
2018-12-21T05:41:32.271Z,22.63
2018-12-21T05:46:33.930Z,21.10
2018-12-21T05:51:36.237Z,21.40
2018-12-21T05:56:38.319Z,21.47
2018-12-21T06:01:40.510Z,20.60
2018-12-21T06:06:42.825Z,25.70
2018-12-21T06:11:44.910Z,19.13
2018-12-21T06:16:46.587Z,19.67
2018-12-21T06:21:48.466Z,22.40
2018-12-21T06:26:50.755Z,22.33
2018-12-21T06:31:53.041Z,22.07
2018-12-21T06:36:54.921Z,22.30
2018-12-21T06:41:57.002Z,22.57
2018-12-21T06:46:58.868Z,20.67
2018-12-21T06:52:01.171Z,25.63
2018-12-21T06:57:03.236Z,22.97
2018-12-21T07:02:19.963Z,20.93
2018-12-21T07:07:21.743Z,19.17
2018-12-21T07:12:23.734Z,16.40
2018-12-21T07:17:25.409Z,21.87
2018-12-21T07:22:27.493Z,21.70
2018-12-21T07:27:29.578Z,26.73
2018-12-21T07:32:31.459Z,22.30
2018-12-21T07:37:33.121Z,18.50
2018-12-21T07:42:35.003Z,19.57
2018-12-21T07:47:37.102Z,21.90
2018-12-21T07:52:38.990Z,22.40
2018-12-21T07:57:40.618Z,21.27
2018-12-21T08:02:42.338Z,23.33
2018-12-21T08:07:45.867Z,20.03
2018-12-21T08:12:47.532Z,17.63
2018-12-21T08:17:53.846Z,17.90
2018-12-21T08:22:55.804Z,16.53
2018-12-21T08:27:58.078Z,18.77
2018-12-21T08:33:03.594Z,18.50
2018-12-21T08:38:05.952Z,22.70
2018-12-21T08:43:08.019Z,23.13
2018-12-21T08:48:09.914Z,20.97
2018-12-21T08:53:11.535Z,23.23
2018-12-21T08:58:13.268Z,17.80
2018-12-21T09:03:19.040Z,21.23
2018-12-21T09:13:54.959Z,16.00
2018-12-21T09:18:56.814Z,21.63
2018-12-21T09:24:01.100Z,23.73
2018-12-21T09:29:02.679Z,19.40
2018-12-21T09:34:04.722Z,26.40
2018-12-21T09:39:06.392Z,22.00
2018-12-21T09:44:08.680Z,21.63
2018-12-21T09:49:22.219Z,26.93
2018-12-21T09:59:54.467Z,23.17
2018-12-21T10:05:03.912Z,24.90
2018-12-21T10:10:06.622Z,26.97
2018-12-21T10:15:11.143Z,25.17
2018-12-21T10:20:13.447Z,22.37
2018-12-21T10:25:16.148Z,21.60
2018-12-21T10:30:18.802Z,18.53
2018-12-21T10:35:20.527Z,25.63
2018-12-21T10:40:22.201Z,21.80
2018-12-21T10:45:24.492Z,8.27
2018-12-21T10:50:26.572Z,24.30
2018-12-21T10:55:31.114Z,24.03
2018-12-21T11:00:33.245Z,24.30
2018-12-21T11:05:34.932Z,22.40
2018-12-21T11:10:36.660Z,21.57
2018-12-21T11:15:38.296Z,23.87
2018-12-21T11:20:39.974Z,19.03
2018-12-21T11:25:41.710Z,22.30
2018-12-21T11:30:44.060Z,20.10
2018-12-21T11:36:01.561Z,21.07
2018-12-21T11:41:03.219Z,19.70
2018-12-21T11:46:05.189Z,18.80
2018-12-21T11:51:06.902Z,16.33
2018-12-21T11:56:09.421Z,16.90
2018-12-21T12:01:13.479Z,16.73
2018-12-21T12:06:16.132Z,17.93
2018-12-21T12:11:18.435Z,16.73
2018-12-21T12:16:20.131Z,15.10
2018-12-21T12:21:21.851Z,14.27
2018-12-21T12:26:23.973Z,14.40
2018-12-21T12:31:43.049Z,12.83
2018-12-21T12:36:45.396Z,11.50
2018-12-21T12:41:47.319Z,9.60
2018-12-21T12:46:49.209Z,11.90
2018-12-21T12:51:52.143Z,11.40
2018-12-21T12:56:53.846Z,9.70
2018-12-21T13:01:55.565Z,6.77
2018-12-21T13:06:57.856Z,8.20
2018-12-21T13:11:59.531Z,10.30
2018-12-21T13:17:01.209Z,9.70
2018-12-21T13:22:02.935Z,8.70
2018-12-21T13:27:04.972Z,7.90
2018-12-21T13:32:06.852Z,8.03
2018-12-21T13:37:09.142Z,8.73
2018-12-21T13:42:10.818Z,9.97
2018-12-21T13:47:12.682Z,10.70
2018-12-21T13:52:14.362Z,13.07
2018-12-21T13:57:16.062Z,6.23
2018-12-21T14:02:17.720Z,11.93
2018-12-21T14:07:19.477Z,12.03
2018-12-21T14:12:21.147Z,8.90
2018-12-21T14:17:22.862Z,8.73
2018-12-21T14:22:24.950Z,9.50
2018-12-21T14:27:26.631Z,10.53
2018-12-21T14:32:28.339Z,7.70
2018-12-21T14:37:30.442Z,8.87
2018-12-21T14:42:32.733Z,6.97
2018-12-21T14:47:34.445Z,7.70
2018-12-21T14:52:36.544Z,6.93
2018-12-21T14:57:38.324Z,8.30
2018-12-21T15:02:39.998Z,9.23
2018-12-21T15:07:42.280Z,5.73
2018-12-21T15:12:44.359Z,6.30
2018-12-21T15:17:45.993Z,6.93
2018-12-21T15:22:47.729Z,6.43
2018-12-21T15:27:49.797Z,4.37
2018-12-21T15:32:57.721Z,8.53
2018-12-21T15:37:59.730Z,3.93
2018-12-21T15:43:12.042Z,6.10
2018-12-21T15:48:20.851Z,6.27
2018-12-21T15:53:23.202Z,6.73
2018-12-21T15:58:24.881Z,6.60
2018-12-21T16:03:26.966Z,8.63
2018-12-21T16:08:28.610Z,8.07
2018-12-21T16:13:30.270Z,6.80
2018-12-21T16:18:32.396Z,7.13
2018-12-21T16:23:34.476Z,8.80
2018-12-21T16:28:36.255Z,6.30
2018-12-21T16:33:38.508Z,6.30
2018-12-21T16:38:40.218Z,6.43
2018-12-21T16:43:41.891Z,7.37
2018-12-21T16:48:43.998Z,6.30
2018-12-21T16:53:46.065Z,5.70
2018-12-21T16:58:47.922Z,5.20
2018-12-21T17:03:51.069Z,4.20
2018-12-21T17:08:53.156Z,4.07
2018-12-21T17:13:55.034Z,5.80
2018-12-21T17:18:57.358Z,3.73
2018-12-21T17:23:59.197Z,4.67
2018-12-21T17:29:01.301Z,6.00
2018-12-21T17:34:03.670Z,5.07
2018-12-21T17:39:06.770Z,4.40
2018-12-21T17:44:08.670Z,6.23
2018-12-21T17:49:11.581Z,5.03
2018-12-21T17:54:13.299Z,6.00
2018-12-21T17:59:15.425Z,6.20
2018-12-21T18:04:17.147Z,5.60
2018-12-21T18:09:18.875Z,4.90
2018-12-21T18:14:20.752Z,5.43
2018-12-21T18:19:23.043Z,4.40
2018-12-21T18:24:24.749Z,3.40
2018-12-21T18:29:26.418Z,4.67
2018-12-21T18:34:29.770Z,4.70
2018-12-21T18:39:31.614Z,5.53
2018-12-21T18:44:33.704Z,3.73
2018-12-21T18:49:35.431Z,5.47
2018-12-21T18:54:37.548Z,2.57
2018-12-21T18:59:39.487Z,4.43
2018-12-21T19:04:41.412Z,3.83
2018-12-21T19:09:43.034Z,4.00
2018-12-21T19:14:45.044Z,2.73
2018-12-21T19:19:46.735Z,2.20
2018-12-21T19:24:48.471Z,4.57
2018-12-21T19:29:50.771Z,4.70
2018-12-21T19:34:54.094Z,5.50
2018-12-21T19:39:56.141Z,4.10
2018-12-21T19:45:02.032Z,5.20
2018-12-21T19:50:06.639Z,4.93
2018-12-21T19:55:14.342Z,5.07
2018-12-21T20:00:16.126Z,5.70
2018-12-21T20:05:17.820Z,6.63
2018-12-21T20:10:19.916Z,4.53
2018-12-21T20:15:21.584Z,6.73
2018-12-21T20:20:23.274Z,7.63
2018-12-21T20:25:25.342Z,6.20
2018-12-21T20:30:27.443Z,8.67
2018-12-21T20:35:29.302Z,7.80
2018-12-21T20:40:31.198Z,8.37
2018-12-21T20:45:33.272Z,8.70
2018-12-21T20:50:34.944Z,7.20
2018-12-21T20:55:36.840Z,6.13
2018-12-21T21:00:38.934Z,8.63
2018-12-21T21:05:40.639Z,9.10
2018-12-21T21:10:42.956Z,8.60
2018-12-21T21:15:45.259Z,13.70
2018-12-21T21:20:47.350Z,14.57
2018-12-21T21:25:50.050Z,13.87
2018-12-21T21:30:52.152Z,13.60
2018-12-21T21:35:54.027Z,15.37
2018-12-21T21:40:55.810Z,16.57
2018-12-21T21:45:57.782Z,26.20
2018-12-21T21:50:59.671Z,24.70
2018-12-21T21:56:02.787Z,21.03
2018-12-21T22:01:04.650Z,26.80
2018-12-21T22:06:09.827Z,20.70
2018-12-21T22:11:11.906Z,28.07
2018-12-21T22:16:14.205Z,24.03
2018-12-21T22:21:16.503Z,19.10
2018-12-21T22:26:18.387Z,19.30
2018-12-21T22:31:20.064Z,22.13
2018-12-21T22:36:22.165Z,18.57
2018-12-21T22:41:23.852Z,20.00
2018-12-21T22:46:25.549Z,14.87
2018-12-21T22:51:27.194Z,13.17
2018-12-21T22:56:29.446Z,17.67
2018-12-21T23:01:31.758Z,13.90
2018-12-21T23:06:33.886Z,12.10
2018-12-21T23:11:35.995Z,14.77
2018-12-21T23:16:37.692Z,14.20
2018-12-21T23:21:39.432Z,11.53
2018-12-21T23:26:41.539Z,9.20
2018-12-21T23:31:43.438Z,9.90
2018-12-21T23:36:46.139Z,8.10
2018-12-21T23:41:54.811Z,9.30
2018-12-21T23:46:56.908Z,9.57
2018-12-21T23:51:58.595Z,6.93
2018-12-21T23:57:00.293Z,9.40
